createdAt,value
2023-02-22T00:01:28.312Z,89.28
2023-02-22T00:03:54.909Z,97.05
2023-02-22T00:06:25.181Z,89.18
2023-02-22T00:08:52.570Z,93.57
2023-02-22T00:11:20.680Z,79.05
2023-02-22T00:13:50.392Z,90.80
2023-02-22T00:16:21.826Z,89.25
2023-02-22T00:18:49.603Z,89.03
2023-02-22T00:21:17.389Z,89.07
2023-02-22T00:23:46.641Z,89.60
2023-02-22T00:26:18.426Z,91.13
2023-02-22T00:28:50.711Z,91.13
2023-02-22T00:31:18.895Z,92.20
2023-02-22T00:33:45.776Z,89.97
2023-02-22T00:36:13.469Z,91.05
2023-02-22T00:38:41.554Z,82.60
2023-02-22T00:41:08.741Z,97.60
2023-02-22T00:43:35.548Z,94.50
2023-02-22T00:46:02.716Z,81.10
2023-02-22T00:48:29.489Z,86.95
2023-02-22T00:50:56.390Z,74.05
2023-02-22T00:53:24.723Z,83.60
2023-02-22T00:55:51.772Z,83.13
2023-02-22T00:58:18.742Z,89.40
2023-02-22T01:00:45.697Z,85.47
2023-02-22T01:03:15.069Z,81.93
2023-02-22T01:05:42.740Z,79.70
2023-02-22T01:08:13.040Z,82.50
2023-02-22T01:10:40.054Z,82.03
2023-02-22T01:13:12.585Z,81.45
2023-02-22T01:15:41.884Z,82.95
2023-02-22T01:18:09.452Z,79.40
2023-02-22T01:20:36.882Z,78.30
2023-02-22T01:23:07.295Z,77.68
2023-02-22T01:25:34.960Z,71.80
2023-02-22T01:28:02.852Z,79.78
2023-02-22T01:30:33.097Z,86.85
2023-02-22T01:33:01.847Z,83.03
2023-02-22T01:35:32.831Z,78.85
2023-02-22T01:37:59.773Z,69.97
2023-02-22T01:40:33.211Z,71.43
2023-02-22T01:43:03.549Z,75.25
2023-02-22T01:45:30.147Z,79.20
2023-02-22T01:48:03.881Z,76.53
2023-02-22T01:50:35.141Z,75.05
2023-02-22T01:53:03.172Z,76.00
2023-02-22T01:55:30.929Z,80.50
2023-02-22T01:57:57.955Z,77.57
2023-02-22T02:00:27.707Z,71.18
2023-02-22T02:03:00.077Z,86.78
2023-02-22T02:05:31.374Z,92.93
2023-02-22T02:08:03.480Z,93.07
2023-02-22T02:10:31.545Z,97.47
2023-02-22T02:12:58.813Z,88.03
2023-02-22T02:15:29.397Z,92.88
2023-02-22T02:18:00.804Z,89.97
2023-02-22T02:20:38.552Z,88.25
2023-02-22T02:23:29.619Z,94.05
2023-02-22T02:26:32.424Z,78.75
2023-02-22T02:29:14.310Z,72.75
2023-02-22T02:31:59.531Z,77.07
2023-02-22T02:34:37.705Z,73.47
2023-02-22T02:37:18.127Z,87.35
2023-02-22T02:39:59.255Z,80.28
2023-02-22T02:42:35.458Z,78.40
2023-02-22T02:45:11.810Z,77.93
2023-02-22T02:47:44.681Z,75.78
2023-02-22T02:50:22.415Z,74.82
2023-02-22T02:52:50.959Z,79.28
2023-02-22T02:55:18.768Z,82.30
2023-02-22T02:57:45.420Z,75.13
2023-02-22T03:00:24.440Z,83.03
2023-02-22T03:03:25.034Z,76.57
2023-02-22T03:06:10.250Z,60.40
2023-02-22T03:09:04.040Z,77.65
2023-02-22T03:12:02.270Z,71.65
2023-02-22T03:15:00.364Z,71.60
2023-02-22T03:17:45.534Z,66.47
2023-02-22T03:20:31.899Z,81.60
2023-02-22T03:23:12.669Z,68.07
2023-02-22T03:25:51.886Z,67.75
2023-02-22T03:28:21.620Z,70.65
2023-02-22T03:30:57.561Z,70.15
2023-02-22T03:33:33.977Z,77.10
2023-02-22T03:36:25.054Z,64.88
2023-02-22T03:38:56.959Z,73.20
2023-02-22T03:41:25.846Z,75.00
2023-02-22T03:46:23.822Z,68.35
2023-02-22T03:49:04.740Z,66.50
2023-02-22T03:51:31.504Z,85.88
2023-02-22T03:53:58.189Z,76.35
2023-02-22T03:56:37.251Z,82.18
2023-02-22T03:59:10.076Z,92.20
2023-02-22T04:01:36.940Z,86.50
2023-02-22T04:04:03.893Z,98.30
2023-02-22T04:06:30.582Z,93.05
2023-02-22T04:08:57.286Z,80.60
2023-02-22T04:11:23.870Z,82.55
2023-02-22T04:13:50.622Z,88.50
2023-02-22T04:16:17.292Z,87.68
2023-02-22T04:18:44.001Z,92.05
2023-02-22T04:21:10.668Z,98.68
2023-02-22T04:23:37.352Z,89.03
2023-02-22T04:26:04.038Z,98.18
2023-02-22T04:28:30.747Z,79.00
2023-02-22T04:30:57.407Z,93.22
2023-02-22T04:33:24.169Z,90.65
2023-02-22T04:35:51.590Z,101.25
2023-02-22T04:38:18.557Z,95.88
2023-02-22T04:40:46.234Z,96.93
2023-02-22T04:43:12.879Z,95.20
2023-02-22T04:45:39.540Z,96.80
2023-02-22T04:48:06.193Z,100.07
2023-02-22T04:50:32.777Z,101.20
2023-02-22T04:52:59.449Z,95.78
2023-02-22T04:55:26.109Z,80.70
2023-02-22T04:57:52.677Z,94.75
2023-02-22T05:00:21.803Z,105.10
2023-02-22T05:02:49.625Z,104.97
2023-02-22T05:05:18.613Z,87.75
2023-02-22T05:10:11.864Z,95.25
2023-02-22T05:12:38.445Z,98.82
2023-02-22T05:15:06.786Z,90.28
2023-02-22T05:17:34.010Z,105.43
2023-02-22T05:20:00.660Z,105.75
2023-02-22T05:22:27.372Z,99.75
2023-02-22T05:24:54.054Z,112.50
2023-02-22T05:27:20.793Z,106.55
2023-02-22T05:29:47.403Z,102.75
2023-02-22T05:32:14.380Z,87.50
2023-02-22T05:34:41.186Z,90.20
2023-02-22T05:37:07.847Z,105.07
2023-02-22T05:39:34.550Z,93.25
2023-02-22T05:42:01.267Z,100.15
2023-02-22T05:44:28.221Z,103.82
2023-02-22T05:46:54.817Z,100.57
2023-02-22T05:49:21.448Z,106.32
2023-02-22T05:51:48.069Z,102.38
2023-02-22T05:54:14.684Z,107.47
2023-02-22T05:56:41.355Z,94.80
2023-02-22T05:59:07.929Z,103.18
2023-02-22T06:01:34.520Z,108.70
2023-02-22T06:04:01.222Z,93.78
2023-02-22T06:06:27.857Z,96.60
2023-02-22T06:08:54.501Z,104.65
2023-02-22T06:11:21.141Z,95.18
2023-02-22T06:13:52.478Z,99.43
2023-02-22T06:16:21.520Z,107.75
2023-02-22T06:18:48.829Z,105.03
2023-02-22T06:21:15.950Z,103.88
2023-02-22T06:23:42.716Z,101.90
2023-02-22T06:26:10.484Z,111.15
2023-02-22T06:28:37.140Z,106.03
2023-02-22T06:31:04.053Z,85.72
2023-02-22T06:33:31.104Z,101.63
2023-02-22T06:35:57.828Z,99.82
2023-02-22T06:38:27.992Z,101.40
2023-02-22T06:40:58.089Z,113.22
2023-02-22T06:43:25.900Z,98.13
2023-02-22T06:45:53.155Z,98.68
2023-02-22T06:48:19.889Z,98.97
2023-02-22T06:50:46.619Z,105.00
2023-02-22T06:53:13.242Z,99.35
2023-02-22T06:55:39.800Z,81.93
2023-02-22T06:58:06.461Z,100.07
2023-02-22T07:00:33.881Z,93.15
2023-02-22T07:03:01.167Z,97.00
2023-02-22T07:05:28.778Z,94.80
2023-02-22T07:08:02.550Z,100.25
2023-02-22T07:10:31.396Z,97.45
2023-02-22T07:12:58.327Z,99.10
2023-02-22T07:15:27.952Z,80.70
2023-02-22T07:17:54.648Z,94.78
2023-02-22T07:20:23.002Z,94.30
2023-02-22T07:22:50.356Z,97.05
2023-02-22T07:25:17.535Z,92.03
2023-02-22T07:27:44.439Z,99.18
2023-02-22T07:30:20.660Z,94.43
2023-02-22T07:32:47.553Z,109.60
2023-02-22T07:35:23.173Z,106.85
2023-02-22T07:37:49.921Z,85.72
2023-02-22T07:40:18.052Z,90.15
2023-02-22T07:43:14.293Z,92.03
2023-02-22T07:45:41.269Z,89.57
2023-02-22T07:48:09.226Z,104.22
2023-02-22T07:50:36.318Z,102.30
2023-02-22T07:53:06.141Z,99.78
2023-02-22T07:55:34.176Z,100.90
2023-02-22T07:58:03.879Z,95.90
2023-02-22T08:00:39.323Z,104.50
2023-02-22T08:03:08.905Z,99.07
2023-02-22T08:05:37.095Z,103.82
2023-02-22T08:08:06.187Z,100.05
2023-02-22T08:10:35.057Z,116.55
2023-02-22T08:15:31.718Z,93.93
2023-02-22T08:18:00.259Z,93.25
2023-02-22T08:20:31.510Z,103.68
2023-02-22T08:22:59.419Z,106.57
2023-02-22T08:25:31.226Z,91.78
2023-02-22T08:28:01.334Z,109.63
2023-02-22T08:30:31.250Z,112.32
2023-02-22T08:32:58.617Z,95.10
2023-02-22T08:35:27.475Z,100.07
2023-02-22T08:40:24.817Z,103.88
2023-02-22T08:42:52.086Z,107.70
2023-02-22T08:45:18.960Z,91.78
2023-02-22T08:47:45.960Z,95.13
2023-02-22T08:50:22.690Z,106.68
2023-02-22T08:53:01.723Z,118.13
2023-02-22T08:55:32.267Z,101.57
2023-02-22T08:58:03.277Z,117.05
2023-02-22T09:00:35.333Z,99.40
2023-02-22T09:03:03.525Z,88.20
2023-02-22T09:05:31.583Z,99.33
2023-02-22T09:07:58.655Z,110.20
2023-02-22T09:10:29.587Z,113.63
2023-02-22T09:12:57.001Z,113.22
2023-02-22T09:15:25.203Z,113.30
2023-02-22T09:17:52.218Z,115.03
2023-02-22T09:20:21.572Z,131.10
2023-02-22T09:22:49.484Z,125.35
2023-02-22T09:25:17.670Z,122.53
2023-02-22T09:27:48.015Z,112.85
2023-02-22T09:30:32.217Z,112.95
2023-02-22T09:33:02.351Z,106.13
2023-02-22T09:35:29.396Z,107.72
2023-02-22T09:37:57.655Z,108.30
2023-02-22T09:40:32.644Z,107.78
2023-02-22T09:43:01.986Z,107.35
2023-02-22T09:45:36.975Z,99.43
2023-02-22T09:48:20.856Z,103.32
2023-02-22T09:50:53.688Z,102.63
2023-02-22T09:53:29.750Z,105.43
2023-02-22T09:56:06.596Z,99.10
2023-02-22T09:58:43.177Z,86.53
2023-02-22T10:01:15.618Z,85.20
2023-02-22T10:03:48.164Z,101.60
2023-02-22T10:06:17.709Z,86.45
2023-02-22T10:08:45.321Z,90.55
2023-02-22T10:11:25.673Z,78.07
2023-02-22T10:14:29.842Z,85.68
2023-02-22T10:17:15.718Z,85.53
2023-02-22T10:20:02.013Z,74.38
2023-02-22T10:22:53.486Z,76.65
2023-02-22T10:25:27.492Z,69.22
2023-02-22T10:28:06.288Z,74.43
2023-02-22T10:30:49.307Z,72.40
2023-02-22T10:33:22.264Z,79.80
2023-02-22T10:35:52.670Z,73.55
2023-02-22T10:38:24.391Z,80.82
2023-02-22T10:40:57.950Z,85.57
2023-02-22T10:43:25.765Z,82.90
2023-02-22T10:46:02.938Z,74.50
2023-02-22T10:48:32.140Z,72.50
2023-02-22T10:51:02.113Z,75.00
2023-02-22T10:53:30.029Z,79.90
2023-02-22T10:56:22.493Z,81.83
2023-02-22T10:58:57.768Z,85.50
2023-02-22T11:01:37.877Z,85.53
2023-02-22T11:04:18.287Z,78.57
2023-02-22T11:06:48.358Z,76.60
2023-02-22T11:09:22.614Z,82.00
2023-02-22T11:11:53.701Z,83.80
2023-02-22T11:14:30.990Z,79.68
2023-02-22T11:16:59.487Z,85.13
2023-02-22T11:19:29.018Z,85.57
2023-02-22T11:21:59.468Z,77.57
2023-02-22T11:24:30.438Z,83.53
2023-02-22T11:27:05.937Z,78.60
2023-02-22T11:29:37.582Z,77.68
2023-02-22T11:32:22.514Z,79.70
2023-02-22T11:35:03.478Z,76.60
2023-02-22T11:37:34.780Z,89.20
2023-02-22T11:40:22.137Z,82.35
2023-02-22T11:42:57.222Z,80.90
2023-02-22T11:45:25.806Z,94.40
2023-02-22T11:48:01.439Z,89.07
2023-02-22T11:50:51.523Z,83.95
2023-02-22T11:53:34.562Z,84.57
2023-02-22T11:56:36.767Z,90.20
2023-02-22T11:59:26.826Z,90.30
2023-02-22T12:02:18.542Z,97.15
2023-02-22T12:05:08.141Z,90.18
2023-02-22T12:07:59.031Z,94.18
2023-02-22T12:10:38.785Z,80.60
2023-02-22T12:15:51.428Z,89.03
2023-02-22T12:18:35.574Z,84.10
2023-02-22T12:21:08.530Z,90.65
2023-02-22T12:23:50.844Z,91.03
2023-02-22T12:26:39.641Z,85.88
2023-02-22T12:29:26.055Z,88.35
2023-02-22T12:32:00.825Z,88.15
2023-02-22T12:34:52.325Z,89.63
2023-02-22T12:37:34.970Z,87.35
2023-02-22T12:40:14.769Z,87.05
2023-02-22T12:42:55.791Z,91.55
2023-02-22T12:45:37.185Z,84.80
2023-02-22T12:48:26.309Z,80.32
2023-02-22T12:51:02.232Z,86.47
2023-02-22T12:53:35.380Z,79.28
2023-02-22T12:56:20.138Z,85.47
2023-02-22T12:58:56.938Z,90.30
2023-02-22T13:01:30.242Z,82.22
2023-02-22T13:03:57.019Z,87.38
2023-02-22T13:06:45.193Z,88.68
2023-02-22T13:09:57.887Z,81.13
2023-02-22T13:12:57.735Z,83.47
2023-02-22T13:15:24.357Z,87.20
2023-02-22T13:18:29.806Z,81.45
2023-02-22T13:21:16.597Z,82.32
2023-02-22T13:24:05.331Z,82.05
2023-02-22T13:29:16.490Z,78.43
2023-02-22T13:32:04.654Z,83.65
2023-02-22T13:34:34.103Z,76.88
2023-02-22T13:37:37.731Z,79.68
2023-02-22T13:40:27.420Z,73.03
2023-02-22T13:43:14.645Z,81.70
2023-02-22T13:46:00.255Z,86.75
2023-02-22T13:48:56.406Z,78.50
2023-02-22T13:51:52.857Z,68.88
2023-02-22T13:54:40.431Z,72.60
2023-02-22T13:57:22.148Z,74.15
2023-02-22T13:59:49.285Z,77.93
2023-02-22T14:02:58.389Z,75.88
2023-02-22T14:05:40.945Z,83.18
2023-02-22T14:08:08.817Z,82.90
2023-02-22T14:10:57.719Z,77.78
2023-02-22T14:13:29.303Z,89.88
2023-02-22T14:15:59.976Z,82.68
2023-02-22T14:18:28.782Z,82.72
2023-02-22T14:21:16.892Z,85.47
2023-02-22T14:23:45.578Z,84.40
2023-02-22T14:26:33.910Z,83.80
2023-02-22T14:29:10.107Z,80.25
2023-02-22T14:31:50.099Z,84.70
2023-02-22T14:34:19.613Z,76.90
2023-02-22T14:37:12.347Z,74.53
2023-02-22T14:39:52.483Z,82.25
2023-02-22T14:42:28.291Z,79.15
2023-02-22T14:45:05.617Z,77.55
2023-02-22T14:47:49.491Z,80.47
2023-02-22T14:50:29.105Z,79.80
2023-02-22T14:53:18.623Z,80.93
2023-02-22T14:55:56.640Z,80.18
2023-02-22T14:58:29.407Z,82.95
2023-02-22T15:00:57.165Z,78.72
2023-02-22T15:03:23.972Z,80.75
2023-02-22T15:05:50.716Z,79.22
2023-02-22T15:08:18.923Z,77.85
2023-02-22T15:10:48.149Z,81.53
2023-02-22T15:13:18.901Z,85.63
2023-02-22T15:15:54.739Z,81.65
2023-02-22T15:18:27.203Z,83.95
2023-02-22T15:20:58.190Z,80.85
2023-02-22T15:23:30.329Z,75.07
2023-02-22T15:25:58.054Z,80.10
2023-02-22T15:28:29.067Z,79.35
2023-02-22T15:31:34.151Z,86.25
2023-02-22T15:34:30.701Z,74.32
2023-02-22T15:37:18.630Z,86.60
2023-02-22T15:39:45.211Z,80.07
2023-02-22T15:42:21.020Z,81.43
2023-02-22T15:44:49.780Z,86.93
2023-02-22T15:47:20.617Z,88.40
2023-02-22T15:50:25.646Z,90.00
2023-02-22T15:53:01.748Z,85.75
2023-02-22T15:55:37.610Z,82.05
2023-02-22T15:58:16.271Z,93.50
2023-02-22T16:01:07.145Z,82.32
2023-02-22T16:03:47.514Z,82.60
2023-02-22T16:06:28.640Z,88.72
2023-02-22T16:08:58.759Z,83.90
2023-02-22T16:11:32.957Z,89.95
2023-02-22T16:14:23.360Z,104.25
2023-02-22T16:16:50.109Z,81.05
2023-02-22T16:19:42.020Z,84.95
2023-02-22T16:22:23.597Z,93.20
2023-02-22T16:24:52.491Z,82.95
2023-02-22T16:30:25.517Z,88.85
2023-02-22T16:32:55.384Z,95.18
2023-02-22T16:35:28.579Z,83.10
2023-02-22T16:38:16.895Z,88.85
2023-02-22T16:41:04.946Z,89.55
2023-02-22T16:43:35.314Z,88.20
2023-02-22T16:46:03.745Z,85.18
2023-02-22T16:48:38.264Z,78.68
2023-02-22T16:51:15.808Z,85.18
2023-02-22T16:53:42.807Z,82.82
2023-02-22T16:56:11.816Z,69.97
2023-02-22T16:58:40.571Z,83.85
2023-02-22T17:01:07.729Z,93.43
2023-02-22T17:03:34.391Z,100.78
2023-02-22T17:06:01.256Z,99.85
2023-02-22T17:08:27.880Z,97.03
2023-02-22T17:10:56.983Z,95.35
2023-02-22T17:13:27.272Z,100.00
2023-02-22T17:15:55.040Z,97.93
2023-02-22T17:18:23.557Z,94.25
2023-02-22T17:20:51.636Z,92.15
2023-02-22T17:23:19.232Z,98.83
2023-02-22T17:25:59.252Z,98.18
2023-02-22T17:28:26.608Z,86.25
2023-02-22T17:30:55.169Z,94.57
2023-02-22T17:33:27.278Z,92.88
2023-02-22T17:35:57.831Z,98.40
2023-02-22T17:38:29.098Z,86.32
2023-02-22T17:40:56.826Z,82.18
2023-02-22T17:43:25.017Z,74.88
2023-02-22T17:45:51.814Z,85.40
2023-02-22T17:48:18.604Z,81.32
2023-02-22T17:50:46.789Z,84.47
2023-02-22T17:53:13.888Z,93.25
2023-02-22T17:55:42.785Z,92.90
2023-02-22T18:00:45.864Z,82.32
2023-02-22T18:03:16.206Z,94.90
2023-02-22T18:05:46.317Z,93.47
2023-02-22T18:08:14.203Z,94.88
2023-02-22T18:10:42.462Z,81.07
2023-02-22T18:13:09.824Z,108.90
2023-02-22T18:15:40.174Z,100.72
2023-02-22T18:18:06.843Z,86.75
2023-02-22T18:20:39.868Z,96.95
2023-02-22T18:23:08.153Z,86.55
2023-02-22T18:25:36.650Z,94.82
2023-02-22T18:28:06.331Z,74.80
2023-02-22T18:30:37.910Z,89.82
2023-02-22T18:33:04.722Z,83.22
2023-02-22T18:35:31.700Z,83.18
2023-02-22T18:37:58.355Z,90.80
2023-02-22T18:40:24.989Z,90.68
2023-02-22T18:42:51.588Z,93.00
2023-02-22T18:45:18.275Z,79.45
2023-02-22T18:47:45.597Z,92.80
2023-02-22T18:50:13.337Z,95.88
2023-02-22T18:52:46.078Z,86.68
2023-02-22T18:55:19.693Z,89.88
2023-02-22T18:57:47.488Z,99.13
2023-02-22T19:00:17.732Z,97.47
2023-02-22T19:02:44.435Z,97.00
2023-02-22T19:05:13.079Z,91.65
2023-02-22T19:07:39.923Z,99.93
2023-02-22T19:10:08.712Z,90.30
2023-02-22T19:12:36.141Z,93.25
2023-02-22T19:15:02.975Z,102.47
2023-02-22T19:17:31.159Z,93.28
2023-02-22T19:19:57.800Z,91.38
2023-02-22T19:22:26.372Z,99.63
2023-02-22T19:24:57.321Z,97.82
2023-02-22T19:27:24.901Z,102.30
2023-02-22T19:29:51.890Z,97.88
2023-02-22T19:32:18.918Z,94.70
2023-02-22T19:34:45.851Z,91.72
2023-02-22T19:37:13.185Z,93.38
2023-02-22T19:39:42.464Z,90.07
2023-02-22T19:42:10.305Z,94.65
2023-02-22T19:44:37.440Z,94.80
2023-02-22T19:47:09.033Z,107.78
2023-02-22T19:49:37.498Z,95.10
2023-02-22T19:52:06.593Z,98.05
2023-02-22T19:54:33.766Z,95.15
2023-02-22T19:57:00.777Z,101.45
2023-02-22T19:59:28.031Z,88.32
2023-02-22T20:01:56.132Z,96.05
2023-02-22T20:04:23.379Z,100.97
2023-02-22T20:06:54.608Z,87.95
2023-02-22T20:09:23.981Z,91.78
2023-02-22T20:11:53.861Z,90.95
2023-02-22T20:14:23.553Z,99.55
2023-02-22T20:16:51.790Z,94.75
2023-02-22T20:19:18.590Z,95.97
2023-02-22T20:21:45.274Z,89.18
2023-02-22T20:24:15.331Z,92.10
2023-02-22T20:26:43.327Z,86.38
2023-02-22T20:29:13.794Z,101.53
2023-02-22T20:31:42.117Z,84.47
2023-02-22T20:34:12.029Z,93.47
2023-02-22T20:36:41.403Z,99.85
2023-02-22T20:39:13.473Z,102.40
2023-02-22T20:41:42.681Z,102.28
2023-02-22T20:44:13.544Z,94.78
2023-02-22T20:46:40.242Z,88.35
2023-02-22T20:49:13.814Z,86.60
2023-02-22T20:51:41.860Z,87.03
2023-02-22T20:54:12.112Z,100.73
2023-02-22T20:56:41.925Z,100.18
2023-02-22T20:59:14.452Z,98.50
2023-02-22T21:01:42.250Z,101.40
2023-02-22T21:04:10.355Z,100.72
2023-02-22T21:06:39.017Z,93.37
2023-02-22T21:09:08.788Z,97.53
2023-02-22T21:11:35.677Z,104.07
2023-02-22T21:14:03.226Z,99.70
2023-02-22T21:16:33.381Z,94.03
2023-02-22T21:19:02.722Z,87.68
2023-02-22T21:21:30.879Z,95.20
2023-02-22T21:24:01.977Z,102.65
2023-02-22T21:26:31.217Z,91.97
2023-02-22T21:29:00.520Z,122.55
2023-02-22T21:31:28.017Z,104.93
2023-02-22T21:33:57.345Z,95.15
2023-02-22T21:36:27.217Z,101.32
2023-02-22T21:38:58.713Z,95.78
2023-02-22T21:41:30.229Z,99.97
2023-02-22T21:43:58.438Z,93.63
2023-02-22T21:46:27.303Z,110.47
2023-02-22T21:48:53.952Z,92.32
2023-02-22T21:51:25.842Z,92.40
2023-02-22T21:53:54.698Z,85.28
2023-02-22T21:59:03.256Z,98.90
2023-02-22T22:01:33.878Z,100.90
2023-02-22T22:04:01.948Z,84.40
2023-02-22T22:06:30.388Z,87.50
2023-02-22T22:08:59.829Z,95.25
2023-02-22T22:11:26.723Z,106.80
2023-02-22T22:13:57.564Z,105.10
2023-02-22T22:16:27.146Z,108.57
2023-02-22T22:18:54.808Z,94.78
2023-02-22T22:21:23.985Z,83.40
2023-02-22T22:23:54.340Z,95.18
2023-02-22T22:26:24.532Z,99.43
2023-02-22T22:28:57.735Z,111.88
2023-02-22T22:31:26.118Z,98.43
2023-02-22T22:33:54.163Z,90.22
2023-02-22T22:36:22.399Z,94.68
2023-02-22T22:38:49.322Z,87.22
2023-02-22T22:41:18.897Z,99.57
2023-02-22T22:43:46.192Z,89.07
2023-02-22T22:46:15.381Z,99.75
2023-02-22T22:48:43.166Z,99.00
2023-02-22T22:51:13.140Z,97.15
2023-02-22T22:53:42.772Z,91.93
2023-02-22T22:56:15.837Z,109.57
2023-02-22T22:58:46.866Z,105.88
2023-02-22T23:01:19.619Z,108.10
2023-02-22T23:03:56.701Z,108.90
2023-02-22T23:06:26.533Z,99.93
2023-02-22T23:09:04.007Z,95.35
2023-02-22T23:11:33.717Z,108.15
2023-02-22T23:14:03.560Z,95.00
2023-02-22T23:16:32.287Z,106.70
2023-02-22T23:18:59.056Z,97.57
2023-02-22T23:21:26.012Z,104.00
2023-02-22T23:23:58.278Z,95.97
2023-02-22T23:26:27.144Z,100.82
2023-02-22T23:28:56.296Z,123.18
2023-02-22T23:31:23.671Z,119.47
2023-02-22T23:33:50.641Z,112.07
2023-02-22T23:36:18.561Z,105.72
2023-02-22T23:38:46.030Z,108.75
2023-02-22T23:41:18.677Z,97.65
2023-02-22T23:43:45.857Z,104.15
2023-02-22T23:46:18.412Z,111.47
2023-02-22T23:48:50.786Z,100.93
2023-02-22T23:51:20.768Z,105.95
2023-02-22T23:53:49.137Z,104.15
2023-02-22T23:56:20.975Z,100.75
2023-02-22T23:58:50.446Z,90.60
